Time;durP1;ratioP1;P1;durP2;ratioP2;P2;SDS_P1;SDS_P2;PMS_P1;PMS_P2;Temp;Humidity;BMP_temperature;BMP_pressure;BME280_temperature;BME280_humidity;BME280_pressure;Samples;Min_cycle;Max_cycle;Signal;HPM_P1;HPM_P2
2022/01/08 00:03:25;;;;;;;18.92;11.07;;;;;;;-0.65;100.00;98121.91;10285133;28;20078;-79
2022/01/08 00:08:26;;;;;;;18.63;11.77;;;;;;;-0.74;100.00;98109.47;10259161;28;20130;-80
2022/01/08 00:13:26;;;;;;;22.95;12.80;;;;;;;-0.73;100.00;98111.03;10256455;28;20078;-77
2022/01/08 00:18:29;;;;;;;23.10;13.23;;;;;;;-0.67;100.00;98120.59;10270315;28;20069;-77
2022/01/08 00:23:30;;;;;;;24.70;14.18;;;;;;;-0.59;100.00;98114.84;10295490;28;20125;-78
2022/01/08 00:28:33;;;;;;;21.70;13.35;;;;;;;-0.50;100.00;98107.25;10288366;28;20377;-78
2022/01/08 00:33:33;;;;;;;22.17;12.80;;;;;;;-0.46;100.00;98103.81;10299781;28;20051;-77
2022/01/08 00:38:34;;;;;;;21.45;13.32;;;;;;;-0.45;100.00;98100.16;10283170;28;20055;-77
2022/01/08 00:43:35;;;;;;;24.65;13.30;;;;;;;-0.31;100.00;98103.91;10283320;28;20062;-77
2022/01/08 00:48:36;;;;;;;23.50;13.15;;;;;;;-0.30;100.00;98089.69;10278098;28;20067;-77
2022/01/08 00:53:37;;;;;;;20.85;12.30;;;;;;;-0.36;100.00;98071.47;10242285;28;20153;-77
2022/01/08 00:58:37;;;;;;;24.33;12.40;;;;;;;-0.41;100.00;98061.69;10256533;28;20051;-78
2022/01/08 01:03:38;;;;;;;23.33;12.98;;;;;;;-0.46;100.00;98072.19;10267183;28;20524;-76
2022/01/08 01:08:39;;;;;;;20.60;11.90;;;;;;;-0.42;100.00;98069.84;10278927;28;20055;-77
2022/01/08 01:13:40;;;;;;;19.20;12.25;;;;;;;-0.40;100.00;98063.28;10298181;28;20050;-77
2022/01/08 01:18:40;;;;;;;21.42;13.15;;;;;;;-0.42;100.00;98041.66;10296679;28;20538;-76
2022/01/08 01:23:43;;;;;;;16.77;10.60;;;;;;;-0.39;100.00;98033.22;10264236;28;20087;-78
2022/01/08 01:28:51;;;;;;;22.13;12.18;;;;;;;-0.36;100.00;98019.53;10268717;28;20102;-76
2022/01/08 01:49:53;;;;;;;23.67;13.25;;;;;;;-0.36;100.00;98002.94;10270238;28;20053;-76
2022/01/08 01:54:54;;;;;;;21.17;12.90;;;;;;;-0.38;100.00;97995.25;10258885;28;20054;-76
2022/01/08 01:59:57;;;;;;;21.73;12.65;;;;;;;-0.43;100.00;97987.34;10251204;28;20146;-76
2022/01/08 02:05:00;;;;;;;18.15;12.23;;;;;;;-0.45;100.00;97973.63;10238569;28;20058;-76
2022/01/08 02:10:01;;;;;;;21.42;13.05;;;;;;;-0.50;100.00;97981.50;10261686;28;20525;-78
2022/01/08 02:15:05;;;;;;;22.05;12.65;;;;;;;-0.48;100.00;97957.53;10255032;28;20141;-76
2022/01/08 02:20:06;;;;;;;22.63;12.68;;;;;;;-0.45;100.00;97959.66;10259316;28;20215;-77
2022/01/08 02:25:07;;;;;;;19.77;12.13;;;;;;;-0.52;100.00;97943.28;10260634;28;20051;-76
2022/01/08 02:30:08;;;;;;;20.02;12.23;;;;;;;-0.44;100.00;97938.31;10251360;28;20059;-75
2022/01/08 02:35:09;;;;;;;21.17;12.68;;;;;;;-0.42;100.00;97927.50;10221107;28;20547;-76
2022/01/08 02:40:11;;;;;;;20.25;12.43;;;;;;;-0.51;100.00;97924.56;10235222;28;20483;-75
2022/01/08 02:45:12;;;;;;;17.65;11.32;;;;;;;-0.52;100.00;97916.94;10261708;28;20359;-76
2022/01/08 02:50:13;;;;;;;18.60;10.40;;;;;;;-0.57;100.00;97897.41;10277851;28;20162;-76
2022/01/08 02:55:16;;;;;;;20.55;11.30;;;;;;;-0.59;100.00;97886.34;10259681;28;20052;-76
2022/01/08 03:00:19;;;;;;;21.25;12.02;;;;;;;-0.64;100.00;97882.88;10265351;28;20050;-76
2022/01/08 03:05:20;;;;;;;21.02;11.25;;;;;;;-0.62;100.00;97876.31;10265943;28;20059;-76
2022/01/08 03:10:21;;;;;;;18.85;11.27;;;;;;;-0.58;100.00;97863.41;10262731;28;20538;-74
2022/01/08 03:15:23;;;;;;;18.33;11.55;;;;;;;-0.59;100.00;97872.38;10248225;28;20201;-77
2022/01/08 03:20:25;;;;;;;18.85;10.88;;;;;;;-0.51;100.00;97866.59;10253633;28;20050;-76
2022/01/08 03:25:25;;;;;;;16.60;10.75;;;;;;;-0.57;100.00;97860.50;10268245;28;20050;-75
2022/01/08 03:30:28;;;;;;;18.80;10.90;;;;;;;-0.58;100.00;97853.66;10278349;28;20093;-75
2022/01/08 03:35:28;;;;;;;19.77;11.98;;;;;;;-0.60;100.00;97850.50;10276433;28;20074;-77
2022/01/08 03:40:29;;;;;;;15.35;9.75;;;;;;;-0.61;100.00;97848.13;10269897;28;20111;-76
2022/01/08 03:45:29;;;;;;;16.17;9.65;;;;;;;-0.62;100.00;97847.31;10289147;28;20126;-76
2022/01/08 03:50:30;;;;;;;16.60;10.02;;;;;;;-0.57;100.00;97849.97;10268889;28;20409;-76
2022/01/08 03:55:30;;;;;;;16.85;9.52;;;;;;;-0.49;100.00;97843.38;10262228;28;20411;-79
2022/01/08 04:00:32;;;;;;;14.45;8.63;;;;;;;-0.52;100.00;97830.75;10260065;28;20055;-76
2022/01/08 04:05:33;;;;;;;17.55;10.27;;;;;;;-0.43;100.00;97831.81;10263435;28;20075;-78
2022/01/08 04:10:33;;;;;;;16.88;10.27;;;;;;;-0.63;100.00;97821.25;10267067;28;20107;-77
2022/01/08 04:15:37;;;;;;;15.13;10.43;;;;;;;-0.60;100.00;97810.97;10254882;28;20050;-77
2022/01/08 04:26:03;;;;;;;18.48;11.25;;;;;;;-0.67;100.00;97797.25;10244095;28;20391;-76
2022/01/08 04:31:04;;;;;;;19.38;11.43;;;;;;;-0.75;100.00;97796.97;10244694;28;20055;-76
2022/01/08 04:36:04;;;;;;;17.30;10.68;;;;;;;-0.80;100.00;97786.44;10275435;28;20066;-77
2022/01/08 04:41:06;;;;;;;19.80;10.82;;;;;;;-0.82;100.00;97785.88;10257965;28;20130;-79
2022/01/08 04:46:07;;;;;;;19.20;11.10;;;;;;;-0.77;100.00;97784.06;10254272;28;20070;-79
2022/01/08 04:51:07;;;;;;;20.63;11.20;;;;;;;-0.83;100.00;97769.28;10265201;28;20187;-77
2022/01/08 04:56:08;;;;;;;21.58;10.93;;;;;;;-0.82;100.00;97768.25;10251539;28;20051;-75
2022/01/08 05:01:17;;;;;;;22.65;11.55;;;;;;;-0.87;100.00;97758.50;10261438;28;20109;-75
2022/01/08 05:06:18;;;;;;;24.98;12.50;;;;;;;-0.88;100.00;97753.47;10250780;28;20067;-76
2022/01/08 05:11:18;;;;;;;21.95;12.43;;;;;;;-0.87;100.00;97737.41;10254337;28;20059;-75
2022/01/08 05:16:20;;;;;;;21.77;12.05;;;;;;;-0.86;100.00;97731.09;10240130;28;20058;-75
2022/01/08 05:21:26;;;;;;;22.10;11.80;;;;;;;-0.84;100.00;97736.09;10275030;28;20107;-75
2022/01/08 05:26:27;;;;;;;22.00;12.23;;;;;;;-0.84;100.00;97728.19;10274664;28;20117;-78
2022/01/08 05:31:27;;;;;;;24.65;11.93;;;;;;;-0.80;100.00;97725.84;10266276;28;20186;-77
2022/01/08 05:36:28;;;;;;;23.75;11.57;;;;;;;-0.78;100.00;97713.97;10250128;28;20531;-76
2022/01/08 05:41:28;;;;;;;24.65;12.13;;;;;;;-0.74;100.00;97714.22;10270378;28;20062;-76
2022/01/08 05:46:29;;;;;;;24.33;11.93;;;;;;;-0.71;100.00;97711.09;10249530;28;20055;-75
2022/01/08 05:51:29;;;;;;;24.25;11.88;;;;;;;-0.65;100.00;97715.28;10260111;28;20102;-74
2022/01/08 05:56:30;;;;;;;23.17;11.95;;;;;;;-0.69;100.00;97714.25;10277388;28;20062;-76
2022/01/08 06:01:33;;;;;;;25.20;11.55;;;;;;;-0.69;100.00;97709.75;10282982;28;20061;-74
2022/01/08 06:06:35;;;;;;;23.15;12.07;;;;;;;-0.69;100.00;97714.25;10288311;28;20138;-76
2022/01/08 06:11:36;;;;;;;27.42;12.63;;;;;;;-0.69;100.00;97715.03;10286600;28;20070;-77
2022/01/08 06:16:38;;;;;;;25.05;12.05;;;;;;;-0.65;100.00;97717.91;10274857;28;20390;-75
2022/01/08 06:21:38;;;;;;;29.55;13.23;;;;;;;-0.67;100.00;97704.22;10286836;28;20058;-74
2022/01/08 06:26:39;;;;;;;28.77;13.05;;;;;;;-0.55;100.00;97711.84;10271477;28;20546;-75
2022/01/08 06:31:39;;;;;;;29.10;12.93;;;;;;;-0.60;100.00;97712.66;10259646;28;20103;-74
2022/01/08 06:36:40;;;;;;;27.35;12.52;;;;;;;-0.52;100.00;97720.03;10266139;28;20047;-77
2022/01/08 06:41:41;;;;;;;27.13;12.75;;;;;;;-0.61;100.00;97719.78;10282800;28;20110;-77
2022/01/08 06:46:41;;;;;;;24.95;11.82;;;;;;;-0.60;100.00;97718.72;10288972;28;20055;-75
2022/01/08 06:51:42;;;;;;;23.00;11.70;;;;;;;-0.60;100.00;97728.47;10295887;28;20059;-74
2022/01/08 06:56:43;;;;;;;20.48;11.18;;;;;;;-0.61;100.00;97727.69;10282994;28;20352;-74
2022/01/08 07:01:47;;;;;;;21.33;11.13;;;;;;;-0.55;100.00;97735.56;10263393;28;20547;-75
2022/01/08 07:06:48;;;;;;;21.17;11.45;;;;;;;-0.52;100.00;97741.13;10264878;28;20058;-75
2022/01/08 07:11:48;;;;;;;33.90;12.63;;;;;;;-0.49;100.00;97737.94;10277917;28;20059;-74
2022/01/08 07:16:50;;;;;;;24.45;11.23;;;;;;;-0.54;100.00;97763.53;10265875;28;20110;-77
2022/01/08 07:21:50;;;;;;;19.63;9.98;;;;;;;-0.45;100.00;97764.59;10273285;28;20082;-76
2022/01/08 07:26:54;;;;;;;26.55;11.95;;;;;;;-0.42;100.00;97764.84;10301636;28;20549;-77
2022/01/08 07:31:55;;;;;;;29.42;12.98;;;;;;;-0.46;100.00;97773.53;10284680;28;20043;-76
2022/01/08 07:36:56;;;;;;;24.02;10.38;;;;;;;-0.38;100.00;97779.06;10285113;28;20554;-75
2022/01/08 07:41:57;;;;;;;24.25;11.63;;;;;;;-0.50;100.00;97783.81;10285996;28;20133;-75
2022/01/08 07:46:59;;;;;;;23.67;12.18;;;;;;;-0.54;100.00;97790.69;10264321;28;20047;-75
2022/01/08 07:52:00;;;;;;;22.85;12.20;;;;;;;-0.48;100.00;97794.09;10268111;28;20047;-74
2022/01/08 07:57:00;;;;;;;23.30;11.60;;;;;;;-0.49;100.00;97798.56;10266416;28;20050;-75
2022/01/08 08:02:01;;;;;;;23.25;11.88;;;;;;;-0.42;100.00;97806.22;10269138;28;20065;-77
2022/01/08 08:07:02;;;;;;;20.58;11.25;;;;;;;-0.32;100.00;97809.66;10283399;28;20077;-77
2022/01/08 08:12:04;;;;;;;25.65;11.43;;;;;;;-0.36;100.00;97823.66;10280808;28;20516;-76
2022/01/08 08:17:06;;;;;;;23.23;9.93;;;;;;;-0.22;100.00;97826.53;10271918;28;20055;-76
2022/01/08 08:22:08;;;;;;;19.02;9.05;;;;;;;-0.19;100.00;97831.28;10259220;28;20549;-76
2022/01/08 08:27:10;;;;;;;15.98;8.70;;;;;;;-0.07;100.00;97837.88;10264830;28;20102;-77
2022/01/08 08:32:11;;;;;;;18.50;8.45;;;;;;;0.02;100.00;97850.53;10268572;28;20054;-76
2022/01/08 08:37:11;;;;;;;14.95;8.15;;;;;;;0.13;100.00;97860.81;10269353;28;20055;-76
2022/01/08 08:42:12;;;;;;;11.68;6.55;;;;;;;0.35;100.00;97870.28;10266847;28;20059;-75
2022/01/08 08:47:12;;;;;;;8.18;5.38;;;;;;;0.48;100.00;97867.91;10259166;28;20371;-75
2022/01/08 08:52:16;;;;;;;9.85;5.28;;;;;;;0.48;100.00;97867.91;10256334;28;20145;-77
2022/01/08 08:57:16;;;;;;;9.25;5.32;;;;;;;0.71;100.00;97887.63;10267170;28;20054;-75
2022/01/08 09:02:17;;;;;;;9.02;5.03;;;;;;;0.73;100.00;97903.22;10240630;28;20101;-75
2022/01/08 09:07:18;;;;;;;5.30;3.60;;;;;;;0.75;100.00;97919.59;10270318;28;20054;-77
2022/01/08 09:12:18;;;;;;;5.30;3.50;;;;;;;0.91;100.00;97918.47;10265960;28;20051;-78
2022/01/08 09:17:21;;;;;;;4.60;3.33;;;;;;;0.81;100.00;97943.06;10257620;28;20051;-76
2022/01/08 09:22:22;;;;;;;4.68;3.30;;;;;;;0.70;100.00;97956.56;10259717;28;20129;-77
2022/01/08 09:27:23;;;;;;;4.57;3.00;;;;;;;0.72;100.00;97965.03;10272599;28;20050;-75
2022/01/08 09:32:25;;;;;;;3.25;2.28;;;;;;;0.74;100.00;97960.28;10269105;28;20438;-77
2022/01/08 09:37:26;;;;;;;4.78;2.65;;;;;;;0.68;100.00;97972.69;10273488;28;20051;-75
2022/01/08 09:42:27;;;;;;;2.80;2.08;;;;;;;0.69;100.00;98003.31;10262039;28;20075;-77
2022/01/08 09:47:29;;;;;;;4.10;2.00;;;;;;;0.66;100.00;98006.50;10261680;28;20085;-76
2022/01/08 09:52:30;;;;;;;2.17;1.60;;;;;;;0.68;100.00;98014.16;10248775;28;20106;-76
2022/01/08 09:57:31;;;;;;;2.22;1.88;;;;;;;0.66;100.00;98034.75;10285279;28;20047;-75
2022/01/08 10:02:32;;;;;;;2.15;1.60;;;;;;;0.72;100.00;98039.75;10287601;28;20048;-75
2022/01/08 10:07:32;;;;;;;3.65;1.90;;;;;;;0.69;100.00;98052.72;10288551;28;20050;-77
2022/01/08 10:12:52;;;;;;;3.22;2.20;;;;;;;0.38;100.00;98073.81;10260279;28;20095;-77
2022/01/08 10:17:53;;;;;;;3.17;2.13;;;;;;;0.40;100.00;98081.47;10273472;28;20059;-77
2022/01/08 10:23:19;;;;;;;3.15;2.25;;;;;;;0.42;100.00;98092.56;10288385;28;20047;-77
2022/01/08 10:28:32;;;;;;;2.78;1.90;;;;;;;0.46;100.00;98098.91;10264230;28;20105;-77
2022/01/08 10:33:32;;;;;;;3.03;2.50;;;;;;;0.33;100.00;98109.97;10265527;28;20574;-78
2022/01/08 10:38:33;;;;;;;2.83;2.25;;;;;;;0.46;100.00;98112.13;10256030;28;20059;-76
2022/01/08 10:43:33;;;;;;;6.82;2.55;;;;;;;0.45;100.00;98123.72;10277176;28;20561;-76
2022/01/08 10:48:37;;;;;;;3.97;2.78;;;;;;;0.51;100.00;98130.59;10271861;28;20057;-76
2022/01/08 10:53:54;;;;;;;4.90;2.92;;;;;;;0.51;100.00;98143.78;10238438;28;20127;-76
2022/01/08 10:59:05;;;;;;;4.00;2.97;;;;;;;0.53;100.00;98153.03;10266755;28;20054;-76
2022/01/08 11:04:11;;;;;;;6.45;3.70;;;;;;;0.53;100.00;98154.88;10254452;28;20115;-76
2022/01/08 11:09:13;;;;;;;6.97;4.00;;;;;;;0.59;100.00;98153.84;10268098;28;20062;-77
2022/01/08 11:14:44;;;;;;;6.53;3.45;;;;;;;0.82;100.00;98160.47;10263433;28;20103;-76
2022/01/08 11:19:35;;;;;;;4.32;3.00;;;;;;;0.75;100.00;98155.47;10247087;28;20473;-77
2022/01/08 11:24:36;;;;;;;5.22;3.45;;;;;;;0.74;100.00;98163.66;10277671;28;20058;-76
2022/01/08 11:29:44;;;;;;;6.00;3.80;;;;;;;0.80;100.00;98173.16;10266719;28;20130;-80
2022/01/08 11:34:45;;;;;;;;;;;;;;;0.86;100.00;98169.50;10268528;28;20406;-75
2022/01/08 11:39:48;;;;;;;13.75;7.50;;;;;;;0.93;100.00;98177.97;10254439;28;19930;-78
2022/01/08 11:44:52;;;;;;;9.35;5.07;;;;;;;1.00;100.00;98183.75;10269882;28;20102;-77
2022/01/08 11:49:53;;;;;;;9.07;4.30;;;;;;;0.97;100.00;98186.13;10250350;28;20066;-76
2022/01/08 11:54:57;;;;;;;8.82;5.75;;;;;;;1.02;100.00;98191.44;10268719;28;20059;-77
2022/01/08 12:00:02;;;;;;;8.48;4.72;;;;;;;1.04;100.00;98195.41;10288835;28;20061;-79
2022/01/08 12:05:03;;;;;;;7.78;5.28;;;;;;;1.27;100.00;98185.34;10279409;28;20043;-76
2022/01/08 12:10:29;;;;;;;6.93;4.53;;;;;;;1.24;100.00;98170.03;10283630;28;20058;-77
2022/01/08 12:15:42;;;;;;;8.23;4.60;;;;;;;1.36;100.00;98178.50;10282883;28;20127;-77
2022/01/08 12:20:51;;;;;;;6.90;4.38;;;;;;;1.42;100.00;98178.22;10278607;28;20529;-78
2022/01/08 12:25:52;;;;;;;9.18;5.70;;;;;;;1.47;100.00;98166.06;10286194;28;20224;-78
2022/01/08 12:30:52;;;;;;;8.95;5.78;;;;;;;1.56;100.00;98175.84;10270997;28;20055;-77
2022/01/08 12:35:57;;;;;;;10.15;5.60;;;;;;;1.53;100.00;98168.44;10264604;28;20059;-77
2022/01/08 12:40:59;;;;;;;10.07;5.72;;;;;;;1.97;100.00;98152.72;10273609;28;20218;-77
2022/01/08 12:46:22;;;;;;;24.40;6.25;;;;;;;2.07;100.00;98143.94;10286578;28;20101;-78
2022/01/08 12:51:24;;;;;;;7.95;5.30;;;;;;;2.50;100.00;98141.66;10289875;28;20126;-78
2022/01/08 12:56:25;;;;;;;8.43;6.10;;;;;;;2.49;100.00;98130.25;10275226;28;20511;-77
2022/01/08 13:01:26;;;;;;;8.85;5.68;;;;;;;2.36;100.00;98122.91;10279866;28;20117;-78
2022/01/08 13:06:34;;;;;;;9.27;5.88;;;;;;;2.03;100.00;98113.00;10287241;28;20113;-78
2022/01/08 13:11:36;;;;;;;8.70;5.35;;;;;;;1.86;100.00;98108.03;10303581;28;20058;-79
2022/01/08 13:16:43;;;;;;;8.23;4.72;;;;;;;1.79;100.00;98100.38;10289987;28;20592;-78
2022/01/08 13:21:50;;;;;;;9.25;5.43;;;;;;;1.68;100.00;98094.34;10325251;28;20046;-78
2022/01/08 13:26:53;;;;;;;8.43;5.65;;;;;;;1.65;100.00;98094.88;10307104;28;20562;-77
2022/01/08 13:31:57;;;;;;;10.93;6.43;;;;;;;1.57;100.00;98106.03;10276976;28;20058;-78
2022/01/08 13:37:08;;;;;;;10.73;6.20;;;;;;;1.51;100.00;98109.72;10272601;28;20042;-78
2022/01/08 13:42:22;;;;;;;7.00;4.97;;;;;;;1.28;100.00;98094.41;10266938;28;20059;-76
2022/01/08 13:47:33;;;;;;;7.55;4.90;;;;;;;1.40;100.00;98100.22;10251913;28;20095;-76
2022/01/08 13:52:45;;;;;;;7.57;4.55;;;;;;;1.31;100.00;98099.19;10266055;28;20090;-77
2022/01/08 13:57:53;;;;;;;7.20;4.85;;;;;;;1.30;100.00;98098.41;10271584;28;20067;-77
2022/01/08 14:02:57;;;;;;;9.75;5.25;;;;;;;1.22;100.00;98096.28;10236615;28;20074;-77
2022/01/08 14:08:08;;;;;;;11.10;5.20;;;;;;;1.30;100.00;98090.47;10263068;28;20458;-78
2022/01/08 14:13:11;;;;;;;7.72;5.03;;;;;;;1.47;100.00;98087.53;10258585;28;20126;-78
2022/01/08 14:18:30;;;;;;;9.20;5.97;;;;;;;1.52;100.00;98074.28;10283997;28;20148;-79
2022/01/08 14:23:32;;;;;;;9.60;5.95;;;;;;;1.29;100.00;98059.00;10265688;28;20538;-76
2022/01/08 14:28:32;;;;;;;8.55;5.05;;;;;;;1.16;100.00;98064.84;10272826;28;20055;-76
2022/01/08 14:33:33;;;;;;;7.78;5.55;;;;;;;0.97;100.00;98067.25;10261590;28;20053;-77
2022/01/08 14:38:52;;;;;;;11.77;6.47;;;;;;;0.81;100.00;98063.81;10289272;28;20467;-80
2022/01/08 14:44:04;;;;;;;10.13;6.05;;;;;;;0.72;100.00;98068.03;10269734;28;20058;-76
2022/01/08 14:49:06;;;;;;;11.27;5.63;;;;;;;0.71;100.00;98055.88;10249830;28;20058;-79
2022/01/08 14:54:08;;;;;;;10.45;6.32;;;;;;;0.51;100.00;98052.19;10273076;28;20110;-78
2022/01/08 14:59:10;;;;;;;9.68;6.32;;;;;;;0.20;100.00;98030.25;10265922;28;20111;-81
2022/01/08 15:04:14;;;;;;;10.57;6.53;;;;;;;0.03;100.00;98028.88;10282003;28;20105;-80
2022/01/08 15:09:36;;;;;;;11.07;6.60;;;;;;;-0.12;100.00;98030.41;10287313;28;20059;-79
2022/01/08 15:14:38;;;;;;;15.85;6.13;;;;;;;-0.17;100.00;98019.06;10263872;28;20047;-82
2022/01/08 15:19:40;;;;;;;13.63;6.55;;;;;;;-0.24;100.00;98010.59;10290775;28;20136;-81
2022/01/08 15:24:42;;;;;;;10.98;6.90;;;;;;;-0.46;100.00;98003.66;10298797;28;20227;-80
2022/01/08 15:29:43;;;;;;;11.60;7.10;;;;;;;-0.53;100.00;97994.44;10286268;28;20150;-80
2022/01/08 15:34:46;;;;;;;11.75;7.88;;;;;;;-0.66;100.00;97985.13;10282556;28;20402;-81
2022/01/08 15:39:53;;;;;;;8.57;6.28;;;;;;;-0.76;100.00;97975.34;10253003;28;20110;-81
2022/01/08 15:44:53;;;;;;;12.10;6.82;;;;;;;-0.90;100.00;97975.03;10304050;28;20066;-83
2022/01/08 15:49:56;;;;;;;13.13;7.38;;;;;;;-0.93;100.00;97970.25;10284452;28;20079;-83
2022/01/08 15:54:59;;;;;;;11.98;7.57;;;;;;;-0.89;100.00;97958.16;10299920;28;20055;-82
2022/01/08 16:00:00;;;;;;;12.93;7.00;;;;;;;-0.91;100.00;97948.94;10272328;28;20050;-85
2022/01/08 16:05:04;;;;;;;16.90;8.23;;;;;;;-0.97;100.00;97942.84;10296333;28;20062;-83
2022/01/08 16:10:06;;;;;;;12.90;7.57;;;;;;;-1.04;100.00;97947.53;10309292;28;20053;-83
2022/01/08 16:15:07;;;;;;;12.95;7.68;;;;;;;-0.99;100.00;97933.63;10252546;28;20043;-80
2022/01/08 16:20:24;;;;;;;13.27;7.65;;;;;;;-1.05;100.00;97929.38;10254198;28;20064;-83
2022/01/08 16:25:26;;;;;;;12.30;7.85;;;;;;;-1.14;100.00;97923.78;10300951;28;20051;-83
2022/01/08 16:30:53;;;;;;;15.60;8.68;;;;;;;-1.20;100.00;97914.28;10247825;28;20055;-83
2022/01/08 16:35:59;;;;;;;11.95;7.60;;;;;;;-1.18;100.00;97906.94;10257695;28;20050;-81
2022/01/08 16:41:02;;;;;;;13.57;8.43;;;;;;;-1.13;100.00;97908.78;10340172;23;20077;-82
2022/01/08 16:46:26;;;;;;;20.75;10.98;;;;;;;-1.14;100.00;97897.47;10321864;28;20058;-81
2022/01/08 16:51:28;;;;;;;21.42;11.55;;;;;;;-1.07;100.00;97887.50;10337766;28;20050;-81
2022/01/08 16:56:33;;;;;;;15.73;10.02;;;;;;;-1.04;100.00;97870.38;10326146;28;20050;-83
2022/01/08 17:02:06;;;;;;;16.85;10.35;;;;;;;-0.99;100.00;97857.25;10330811;28;20052;-84
2022/01/08 17:07:31;;;;;;;21.55;10.43;;;;;;;-0.93;100.00;97835.91;10319936;28;20082;-84
2022/01/08 17:12:33;;;;;;;14.82;7.75;;;;;;;-0.75;100.00;97831.22;10338498;28;20078;-82
2022/01/08 17:17:38;;;;;;;12.88;8.40;;;;;;;-0.74;100.00;97815.13;10353557;28;20058;-82
2022/01/08 17:22:40;;;;;;;11.57;7.03;;;;;;;-0.68;100.00;97805.41;10268281;28;20596;-82
2022/01/08 17:27:42;;;;;;;8.65;6.18;;;;;;;-0.67;100.00;97791.97;10293960;28;20445;-82
2022/01/08 17:32:44;;;;;;;12.93;7.13;;;;;;;-0.65;100.00;97789.84;10339630;28;20382;-82
2022/01/08 17:37:46;;;;;;;9.35;6.38;;;;;;;-0.61;100.00;97774.31;10257062;28;20046;-79
2022/01/08 17:42:47;;;;;;;10.45;6.30;;;;;;;-0.63;100.00;97760.63;10307773;28;20058;-82
2022/01/08 17:47:54;;;;;;;16.38;7.13;;;;;;;-0.58;100.00;97753.50;10295650;28;20079;-83
2022/01/08 17:53:01;;;;;;;10.60;6.05;;;;;;;-0.56;100.00;97742.69;10288230;28;20115;-81
2022/01/08 17:58:03;;;;;;;12.63;6.85;;;;;;;-0.54;100.00;97729.28;10308737;28;20534;-83
2022/01/08 18:03:10;;;;;;;10.35;6.72;;;;;;;-0.62;100.00;97730.59;10322222;28;20058;-82
2022/01/08 18:08:47;;;;;;;14.82;8.35;;;;;;;-0.62;100.00;97712.13;10341829;28;20054;-83
2022/01/08 18:13:52;;;;;;;17.40;8.80;;;;;;;-0.76;100.00;97703.16;10322904;28;20383;-82
2022/01/08 18:19:00;;;;;;;16.05;8.63;;;;;;;-0.74;100.00;97696.56;10328306;28;20321;-82
2022/01/08 18:24:02;;;;;;;13.27;7.65;;;;;;;-0.72;100.00;97683.16;10321301;28;20149;-83
2022/01/08 18:29:04;;;;;;;11.75;8.38;;;;;;;-0.65;100.00;97665.22;10313841;28;20105;-82
2022/01/08 18:34:06;;;;;;;17.13;8.50;;;;;;;-0.65;100.00;97658.09;10314489;28;20105;-82
2022/01/08 18:39:07;;;;;;;11.23;6.80;;;;;;;-0.67;100.00;97643.63;10331115;28;20058;-81
2022/01/08 18:44:08;;;;;;;11.35;6.43;;;;;;;-0.68;100.00;97628.88;10323511;28;20050;-84
2022/01/08 18:49:11;;;;;;;13.43;6.78;;;;;;;-0.76;100.00;97603.84;10333282;28;20077;-82
2022/01/08 18:54:20;;;;;;;8.80;5.88;;;;;;;-0.84;100.00;97598.31;10331349;28;20081;-82
2022/01/08 18:59:25;;;;;;;10.73;6.00;;;;;;;-0.87;100.00;97589.91;10318796;28;20129;-81
2022/01/08 19:04:28;;;;;;;8.77;5.40;;;;;;;-0.78;100.00;97576.19;10299689;28;20058;-81
2022/01/08 19:09:30;;;;;;;10.88;5.50;;;;;;;-0.78;100.00;97558.53;10344740;28;20057;-82
2022/01/08 19:14:34;;;;;;;9.82;4.97;;;;;;;-0.78;100.00;97558.53;10323671;28;20049;-82
2022/01/08 19:24:56;;;;;;;9.20;5.63;;;;;;;-0.74;100.00;97501.59;10360535;28;20126;-84
2022/01/08 19:30:06;;;;;;;7.10;4.75;;;;;;;-0.72;100.00;97494.25;10346124;28;20042;-79
2022/01/08 19:35:13;;;;;;;8.93;4.85;;;;;;;-0.74;100.00;97504.25;10345048;28;20060;-82
2022/01/08 19:40:16;;;;;;;7.32;4.63;;;;;;;-0.67;100.00;97498.69;10324654;28;20042;-80
2022/01/08 19:45:20;;;;;;;8.10;5.28;;;;;;;-0.73;100.00;97483.94;10350681;28;20089;-80
2022/01/08 19:50:23;;;;;;;9.77;4.82;;;;;;;-0.68;100.00;97462.88;10356928;28;20058;-81
2022/01/08 19:55:23;;;;;;;9.15;4.68;;;;;;;-0.63;100.00;97439.94;10357311;28;20062;-81
2022/01/08 20:00:24;;;;;;;8.95;4.80;;;;;;;-0.63;100.00;97428.59;10360642;28;20058;-80
2022/01/08 20:05:30;;;;;;;9.35;4.57;;;;;;;-0.68;100.00;97420.72;10371590;28;20072;-81
2022/01/08 20:10:32;;;;;;;7.57;4.38;;;;;;;-0.69;100.00;97414.66;10357694;28;20048;-85
2022/01/08 20:15:35;;;;;;;6.57;4.20;;;;;;;-0.63;100.00;97400.41;10344725;28;20038;-81
2022/01/08 20:20:48;;;;;;;9.27;6.47;;;;;;;-0.63;100.00;97381.16;10332814;28;20127;-80
2022/01/08 20:25:52;;;;;;;6.55;4.70;;;;;;;-0.63;100.00;97366.16;10332818;28;20098;-79
2022/01/08 20:30:53;;;;;;;7.28;4.47;;;;;;;-0.61;100.00;97355.31;10347024;28;20054;-81
2022/01/08 20:36:17;;;;;;;7.63;4.70;;;;;;;-0.64;100.00;97330.31;10334330;28;20140;-79
2022/01/08 20:42:14;;;;;;;7.63;4.35;;;;;;;-0.57;100.00;97314.19;10339485;28;20054;-81
2022/01/08 20:47:30;;;;;;;8.05;4.47;;;;;;;-0.49;100.00;97308.31;10309065;28;20050;-81
2022/01/08 20:52:36;;;;;;;6.72;4.38;;;;;;;-0.45;100.00;97284.88;10338173;28;20057;-79
2022/01/08 20:57:37;;;;;;;9.07;4.43;;;;;;;-0.47;100.00;97265.88;10313747;28;20062;-81
2022/01/08 21:02:40;;;;;;;7.97;4.78;;;;;;;-0.44;100.00;97250.31;10326587;28;20058;-80
2022/01/08 21:07:42;;;;;;;6.15;4.18;;;;;;;-0.50;100.00;97232.97;10325740;28;20351;-79
2022/01/08 21:12:43;;;;;;;7.50;4.00;;;;;;;-0.48;100.00;97217.66;10316202;28;20054;-83
2022/01/08 21:17:44;;;;;;;5.95;3.85;;;;;;;-0.50;100.00;97198.69;10327772;28;20049;-81
2022/01/08 21:22:46;;;;;;;6.32;4.20;;;;;;;-0.42;100.00;97189.41;10350694;28;20106;-79
2022/01/08 21:27:46;;;;;;;6.60;4.22;;;;;;;-0.33;100.00;97174.56;10306218;28;20073;-79
2022/01/08 21:32:51;;;;;;;5.68;3.72;;;;;;;-0.36;100.00;97157.47;10308345;28;20050;-78
2022/01/08 21:37:55;;;;;;;5.60;3.83;;;;;;;-0.30;100.00;97143.13;10324124;28;20232;-79
2022/01/08 21:42:56;;;;;;;4.60;3.47;;;;;;;-0.22;100.00;97130.41;10303462;28;20128;-80
2022/01/08 21:47:57;;;;;;;6.10;3.90;;;;;;;-0.26;100.00;97105.69;10314872;28;20054;-81
2022/01/08 21:52:58;;;;;;;9.98;4.43;;;;;;;-0.30;100.00;97108.09;10327455;28;20050;-79
2022/01/08 21:58:19;;;;;;;5.15;3.50;;;;;;;-0.28;100.00;97093.56;10332069;28;20062;-80
2022/01/08 22:03:22;;;;;;;7.47;4.80;;;;;;;-0.33;100.00;97074.38;10342480;28;20066;-79
2022/01/08 22:08:24;;;;;;;6.93;4.93;;;;;;;-0.32;100.00;97078.59;10314808;28;20418;-79
2022/01/08 22:13:28;;;;;;;6.95;4.60;;;;;;;-0.33;100.00;97053.31;10323331;28;20099;-82
2022/01/08 22:18:29;;;;;;;6.38;5.05;;;;;;;-0.32;100.00;97041.69;10312819;28;20054;-82
2022/01/08 22:23:29;;;;;;;5.45;4.40;;;;;;;-0.31;100.00;97033.50;10342476;28;20049;-82
2022/01/08 22:28:31;;;;;;;7.88;4.40;;;;;;;-0.33;100.00;97022.44;10341052;28;20139;-81
2022/01/08 22:33:51;;;;;;;8.75;5.15;;;;;;;-0.28;100.00;97006.56;10347378;28;20054;-80
2022/01/08 22:38:57;;;;;;;8.18;4.75;;;;;;;-0.32;100.00;96997.66;10348934;28;20050;-80
2022/01/08 22:44:07;;;;;;;6.88;5.10;;;;;;;-0.32;100.00;96981.84;10332010;28;20485;-81
2022/01/08 22:49:10;;;;;;;6.25;5.03;;;;;;;-0.34;100.00;96967.38;10314125;28;20057;-79
2022/01/08 22:59:48;;;;;;;6.57;4.78;;;;;;;-0.26;100.00;96955.41;10316674;28;20136;-80
2022/01/08 23:04:52;;;;;;;7.25;5.18;;;;;;;-0.34;100.00;96923.34;10314488;28;20060;-79
2022/01/08 23:09:53;;;;;;;7.72;5.60;;;;;;;-0.42;100.00;96910.03;10334464;28;20060;-79
2022/01/08 23:14:54;;;;;;;8.27;5.20;;;;;;;-0.41;100.00;96891.28;10329408;28;20051;-80
2022/01/08 23:19:55;;;;;;;9.10;5.82;;;;;;;-0.46;100.00;96875.53;10335126;28;20054;-79
2022/01/08 23:24:59;;;;;;;7.72;5.65;;;;;;;-0.45;100.00;96858.69;10340556;28;20104;-80
2022/01/08 23:29:59;;;;;;;11.30;6.63;;;;;;;-0.45;100.00;96837.59;10339138;28;20269;-80
2022/01/08 23:35:00;;;;;;;11.77;7.07;;;;;;;-0.47;100.00;96821.25;10345496;28;20050;-79
2022/01/08 23:40:08;;;;;;;11.77;8.00;;;;;;;-0.48;100.00;96808.38;10368412;28;20098;-82